Eizo Maru — JD2944 — position and weather

sailwx.info

Track history (hours):
 
Tides and Currents Weather Stations Pressure Air Temp Water Temp Dewpoint Dewpoint Depression Visibility Wind Speed Wind Dir Waves Ship Positions

Eizo Maru

Last reported at 2014-Dec-21 00:16 UTC. Time now 2014-Dec-21 01:11 UTC.
Position N 35°30' E 139°50'.

Length 80 m; draft 4 m.

Type: Tanker. MMSI: 431000976.

Date/timePositionNaut miles runAvg speedWind from/ knotsBaromVisibWave heightAir tempDewpointWater temp
2014-Dec-21 00:16N 35°30' E 139°50'0 0.0
2014-Dec-20 21:04N 35°30' E 139°50'0 0.1
2014-Dec-20 20:25N 35°30' E 139°50'0 0.0
2014-Dec-20 19:25N 35°30' E 139°50'0 0.0
2014-Dec-20 18:31N 35°30' E 139°50'0 0.0
2014-Dec-20 17:31N 35°30' E 139°50'0 0.0
2014-Dec-20 16:31N 35°30' E 139°50'0 0.0
2014-Dec-20 15:28N 35°30' E 139°50'0 0.0
2014-Dec-20 14:28N 35°30' E 139°50'0 0.0
2014-Dec-20 13:28N 35°30' E 139°50'0 0.0
2014-Dec-20 12:16N 35°30' E 139°50'0 0.0
2014-Dec-20 11:13N 35°30' E 139°50'0 0.0
2014-Dec-20 10:22N 35°30' E 139°50'0 0.1
2014-Dec-20 09:11N 35°30' E 139°50'4 6.0
2014-Dec-20 08:33N 35°30' E 139°45'0 0.0
2014-Dec-20 05:33N 35°30' E 139°45'7 7.3
2014-Dec-20 04:33N 35°23' E 139°46'1211.7
2014-Dec-20 03:30N 35°10' E 139°47'  
2014-Dec-16 11:26N 34°20' E 134°59'1213.5
2014-Dec-16 10:33N 34°28' E 135°10'1312.7
2014-Dec-16 09:33N 34°33' E 135°24'1 0.1
2014-Dec-16 01:32N 34°33' E 135°23'3 1.6
2014-Dec-15 23:33N 34°31' E 135°20'0 0.0
2014-Dec-15 22:34N 34°31' E 135°20'0 0.0
2014-Dec-15 21:27N 34°31' E 135°20'0 0.0
2014-Dec-15 20:27N 34°31' E 135°20'0 0.0
2014-Dec-15 19:33N 34°31' E 135°20'0 0.0
2014-Dec-15 18:16N 34°31' E 135°20'0 0.0
2014-Dec-15 17:21N 34°31' E 135°20'0 0.0
2014-Dec-15 15:27N 34°31' E 135°20'0 0.0
2014-Dec-15 13:27N 34°31' E 135°20'0 0.0
2014-Dec-15 12:15N 34°31' E 135°20'0 0.0
2014-Dec-15 09:15N 34°31' E 135°20'0 0.0
2014-Dec-15 08:33N 34°31' E 135°20'0 0.0
2014-Dec-15 07:27N 34°31' E 135°20'0 0.0
2014-Dec-15 06:33N 34°31' E 135°20'0 0.0
2014-Dec-15 05:15N 34°31' E 135°20'0 0.0
2014-Dec-15 04:33N 34°31' E 135°20'0 0.0
2014-Dec-15 03:33N 34°31' E 135°20'0 0.0
2014-Dec-15 02:33N 34°31' E 135°20'0 0.0
2014-Dec-15 01:33N 34°31' E 135°20'0 0.0
2014-Dec-15 00:33N 34°31' E 135°20'0 0.0
2014-Dec-14 23:33N 34°31' E 135°20'0 0.0
2014-Dec-14 22:21N 34°31' E 135°20'0 0.0
2014-Dec-14 21:15N 34°31' E 135°20'0 0.0
2014-Dec-14 20:27N 34°31' E 135°20'0 0.0
2014-Dec-14 19:33N 34°31' E 135°20'0 0.0
2014-Dec-14 18:27N 34°31' E 135°20'0 0.0
2014-Dec-14 17:33N 34°31' E 135°20'0 0.0
2014-Dec-14 16:33N 34°31' E 135°20'0 0.0
2014-Dec-14 15:27N 34°31' E 135°20'0 0.0
2014-Dec-14 14:27N 34°31' E 135°20'0 0.0
2014-Dec-14 13:33N 34°31' E 135°20'0 0.0
2014-Dec-14 12:33N 34°31' E 135°20'0 0.0
2014-Dec-14 11:33N 34°31' E 135°20'0 0.0
2014-Dec-14 10:33N 34°31' E 135°20'0 0.0
2014-Dec-14 09:27N 34°31' E 135°20'0 0.0
2014-Dec-14 08:33N 34°31' E 135°20'0 0.0
2014-Dec-14 07:33N 34°31' E 135°20'0 0.0
2014-Dec-14 06:33N 34°31' E 135°20'0 0.0
2014-Dec-14 05:33N 34°31' E 135°20'0 0.0
2014-Dec-14 04:33N 34°31' E 135°20'0 0.0
2014-Dec-14 03:21N 34°31' E 135°20'0 0.0
2014-Dec-14 02:21N 34°31' E 135°20'0 0.0
2014-Dec-14 01:27N 34°31' E 135°20'0 0.0
2014-Dec-14 00:27N 34°31' E 135°20'0 0.0
2014-Dec-13 23:27N 34°31' E 135°20'0 0.0
2014-Dec-13 22:27N 34°31' E 135°20'0 0.0
2014-Dec-13 21:21N 34°31' E 135°20'0 0.0
2014-Dec-13 20:33N 34°31' E 135°20'0 0.0
2014-Dec-13 19:33N 34°31' E 135°20'0 0.0
2014-Dec-13 18:33N 34°31' E 135°20'0 0.0
2014-Dec-13 17:33N 34°31' E 135°20'0 0.0
2014-Dec-13 16:33N 34°31' E 135°20'0 0.0
2014-Dec-13 15:33N 34°31' E 135°20'0 0.0
2014-Dec-13 14:33N 34°31' E 135°20'0 0.0
2014-Dec-13 13:33N 34°31' E 135°20'0 0.0
2014-Dec-13 12:33N 34°31' E 135°20'2 2.3
2014-Dec-13 11:33N 34°31' E 135°17'1312.5
2014-Dec-13 10:31N 34°23' E 135°05'1010.6
2014-Dec-13 09:32N 34°13' E 134°59'242 9.0
2014-Dec-12 06:33N 35°20' E 139°42'1110.8
2014-Dec-12 05:32N 35°31' E 139°46'1 0.1
2014-Dec-11 22:21N 35°32' E 139°46'4 5.1
2014-Dec-11 21:34N 35°30' E 139°50'0 0.0
2014-Dec-11 20:22N 35°30' E 139°50'0 0.0
2014-Dec-11 19:10N 35°30' E 139°50'0 0.0
2014-Dec-11 18:25N 35°30' E 139°50'0 0.0
2014-Dec-11 15:31N 35°30' E 139°50'0 0.0
2014-Dec-11 14:25N 35°30' E 139°50'0 0.0
2014-Dec-11 13:28N 35°30' E 139°50'0 0.0
2014-Dec-11 10:04N 35°30' E 139°50'0 0.0
2014-Dec-11 06:32N 35°30' E 139°50'0 0.1
2014-Dec-11 05:33N 35°30' E 139°50'0 0.0
2014-Dec-11 04:27N 35°30' E 139°50'0 0.0
2014-Dec-11 03:21N 35°30' E 139°50'0 0.1
2014-Dec-11 02:32N 35°30' E 139°50'  
Track history (hours):
 
Tides and Currents Weather Stations Pressure Air Temp Water Temp Dewpoint Dewpoint Depression Visibility Wind Speed Wind Dir Waves Ship Positions

Eizo Maru

Last reported at 2014-Dec-21 00:16 UTC. Time now 2014-Dec-21 01:11 UTC.
Position N 35°30' E 139°50'.

Length 80 m; draft 4 m.

Type: Tanker. MMSI: 431000976.

Date/timePositionNaut miles runAvg speedWind from/ knotsBaromVisibWave heightAir tempDewpointWater temp
2014-Dec-21 00:16N 35°30' E 139°50'0 0.0
2014-Dec-20 21:04N 35°30' E 139°50'0 0.1
2014-Dec-20 20:25N 35°30' E 139°50'0 0.0
2014-Dec-20 19:25N 35°30' E 139°50'0 0.0
2014-Dec-20 18:31N 35°30' E 139°50'0 0.0
2014-Dec-20 17:31N 35°30' E 139°50'0 0.0
2014-Dec-20 16:31N 35°30' E 139°50'0 0.0
2014-Dec-20 15:28N 35°30' E 139°50'0 0.0
2014-Dec-20 14:28N 35°30' E 139°50'0 0.0
2014-Dec-20 13:28N 35°30' E 139°50'0 0.0
2014-Dec-20 12:16N 35°30' E 139°50'0 0.0
2014-Dec-20 11:13N 35°30' E 139°50'0 0.0
2014-Dec-20 10:22N 35°30' E 139°50'0 0.1
2014-Dec-20 09:11N 35°30' E 139°50'4 6.0
2014-Dec-20 08:33N 35°30' E 139°45'0 0.0
2014-Dec-20 05:33N 35°30' E 139°45'7 7.3
2014-Dec-20 04:33N 35°23' E 139°46'1211.7
2014-Dec-20 03:30N 35°10' E 139°47'  
2014-Dec-16 11:26N 34°20' E 134°59'1213.5
2014-Dec-16 10:33N 34°28' E 135°10'1312.7
2014-Dec-16 09:33N 34°33' E 135°24'1 0.1
2014-Dec-16 01:32N 34°33' E 135°23'3 1.6
2014-Dec-15 23:33N 34°31' E 135°20'0 0.0
2014-Dec-15 22:34N 34°31' E 135°20'0 0.0
2014-Dec-15 21:27N 34°31' E 135°20'0 0.0
2014-Dec-15 20:27N 34°31' E 135°20'0 0.0
2014-Dec-15 19:33N 34°31' E 135°20'0 0.0
2014-Dec-15 18:16N 34°31' E 135°20'0 0.0
2014-Dec-15 17:21N 34°31' E 135°20'0 0.0
2014-Dec-15 15:27N 34°31' E 135°20'0 0.0
2014-Dec-15 13:27N 34°31' E 135°20'0 0.0
2014-Dec-15 12:15N 34°31' E 135°20'0 0.0
2014-Dec-15 09:15N 34°31' E 135°20'0 0.0
2014-Dec-15 08:33N 34°31' E 135°20'0 0.0
2014-Dec-15 07:27N 34°31' E 135°20'0 0.0
2014-Dec-15 06:33N 34°31' E 135°20'0 0.0
2014-Dec-15 05:15N 34°31' E 135°20'0 0.0
2014-Dec-15 04:33N 34°31' E 135°20'0 0.0
2014-Dec-15 03:33N 34°31' E 135°20'0 0.0
2014-Dec-15 02:33N 34°31' E 135°20'0 0.0
2014-Dec-15 01:33N 34°31' E 135°20'0 0.0
2014-Dec-15 00:33N 34°31' E 135°20'0 0.0
2014-Dec-14 23:33N 34°31' E 135°20'0 0.0
2014-Dec-14 22:21N 34°31' E 135°20'0 0.0
2014-Dec-14 21:15N 34°31' E 135°20'0 0.0
2014-Dec-14 20:27N 34°31' E 135°20'0 0.0
2014-Dec-14 19:33N 34°31' E 135°20'0 0.0
2014-Dec-14 18:27N 34°31' E 135°20'0 0.0
2014-Dec-14 17:33N 34°31' E 135°20'0 0.0
2014-Dec-14 16:33N 34°31' E 135°20'0 0.0
2014-Dec-14 15:27N 34°31' E 135°20'0 0.0
2014-Dec-14 14:27N 34°31' E 135°20'0 0.0
2014-Dec-14 13:33N 34°31' E 135°20'0 0.0
2014-Dec-14 12:33N 34°31' E 135°20'0 0.0
2014-Dec-14 11:33N 34°31' E 135°20'0 0.0
2014-Dec-14 10:33N 34°31' E 135°20'0 0.0
2014-Dec-14 09:27N 34°31' E 135°20'0 0.0
2014-Dec-14 08:33N 34°31' E 135°20'0 0.0
2014-Dec-14 07:33N 34°31' E 135°20'0 0.0
2014-Dec-14 06:33N 34°31' E 135°20'0 0.0
2014-Dec-14 05:33N 34°31' E 135°20'0 0.0
2014-Dec-14 04:33N 34°31' E 135°20'0 0.0
2014-Dec-14 03:21N 34°31' E 135°20'0 0.0
2014-Dec-14 02:21N 34°31' E 135°20'0 0.0
2014-Dec-14 01:27N 34°31' E 135°20'0 0.0
2014-Dec-14 00:27N 34°31' E 135°20'0 0.0
2014-Dec-13 23:27N 34°31' E 135°20'0 0.0
2014-Dec-13 22:27N 34°31' E 135°20'0 0.0
2014-Dec-13 21:21N 34°31' E 135°20'0 0.0
2014-Dec-13 20:33N 34°31' E 135°20'0 0.0
2014-Dec-13 19:33N 34°31' E 135°20'0 0.0
2014-Dec-13 18:33N 34°31' E 135°20'0 0.0
2014-Dec-13 17:33N 34°31' E 135°20'0 0.0
2014-Dec-13 16:33N 34°31' E 135°20'0 0.0
2014-Dec-13 15:33N 34°31' E 135°20'0 0.0
2014-Dec-13 14:33N 34°31' E 135°20'0 0.0
2014-Dec-13 13:33N 34°31' E 135°20'0 0.0
2014-Dec-13 12:33N 34°31' E 135°20'2 2.3
2014-Dec-13 11:33N 34°31' E 135°17'1312.5
2014-Dec-13 10:31N 34°23' E 135°05'1010.6
2014-Dec-13 09:32N 34°13' E 134°59'242 9.0
2014-Dec-12 06:33N 35°20' E 139°42'1110.8
2014-Dec-12 05:32N 35°31' E 139°46'1 0.1
2014-Dec-11 22:21N 35°32' E 139°46'4 5.1
2014-Dec-11 21:34N 35°30' E 139°50'0 0.0
2014-Dec-11 20:22N 35°30' E 139°50'0 0.0
2014-Dec-11 19:10N 35°30' E 139°50'0 0.0
2014-Dec-11 18:25N 35°30' E 139°50'0 0.0
2014-Dec-11 15:31N 35°30' E 139°50'0 0.0
2014-Dec-11 14:25N 35°30' E 139°50'0 0.0
2014-Dec-11 13:28N 35°30' E 139°50'0 0.0
2014-Dec-11 10:04N 35°30' E 139°50'0 0.0
2014-Dec-11 06:32N 35°30' E 139°50'0 0.1
2014-Dec-11 05:33N 35°30' E 139°50'0 0.0
2014-Dec-11 04:27N 35°30' E 139°50'0 0.0
2014-Dec-11 03:21N 35°30' E 139°50'0 0.1
2014-Dec-11 02:32N 35°30' E 139°50'  

Dump ship's entire track history